Impacts TAF Board
For situational awareness. Not to be used for flight planning purposes.
IDs:

KATL - Atlanta/Hartsfield-J, GA, US

Issued at 0541 UTC 20 Oct 2018
Updated at 0718 UTC 20 Oct 2018
Potential Impact None Slight Moderate High
Time0711Z 20/08Z 20/09Z 20/10Z 20/11Z 20/12Z 20/13Z 20/14Z 20/15Z 20/16Z 20/17Z 20/18Z 20/19Z 20/20Z>>
Type OBS PRVL PRVL PRVL PRVL PRVL PRVL PRVL PRVL PRVL PRVL
  [TEMP]  
PRVL
  [TEMP]  
PRVL
  [TEMP]  
PRVL
VIS 9 >6 >6 >6 >6 >6 >6 >6 >6 >6 >6
  [6]  
>6
  [6]  
>6
  [6]  
>6
CIG 15 100 100 8 8 8 8 12 12 12 12
  [12]  
12
  [12]  
12
  [12]  
--
Cover OVC BKN BKN BKN BKN BKN BKN BKN BKN BKN BKN
  [BKN]  
BKN
  [BKN]  
BKN
  [BKN]  
SCT
FltCat MVFR VFR VFR IFR IFR IFR IFR MVFR MVFR MVFR MVFR
  [MVFR]  
MVFR
  [MVFR]  
MVFR
  [MVFR]  
VFR
WX -- -- -- -- -- -- -- VCSH VCSH VCSH VCSH
  [-SHRA]  
VCSH
  [-SHRA]  
VCSH
  [-SHRA]  
--
WDir 230 190 190 220 220 220 220 290 290 290 290
[290]
290
[290]
290
[290]
300
WSpd 3 4 4 4 4 4 4 7 7 7 7
  [7]  
7
  [7]  
7
  [7]  
11
WGst -- -- -- -- -- -- -- -- -- -- --
  [--]  
--
  [--]  
--
  [--]  
19
Raw TAF
KATL 200541Z 2006/2112 19004KT P6SM BKN100
  FM201000 22004KT P6SM BKN008
  FM201400 29007KT P6SM VCSH BKN012
  TEMPO 2017/2020 6SM -SHRA
  FM202000 30011G19KT P6SM SCT040 SCT100
  FM210000 33013G22KT P6SM SKC


Raw METAR
KATL 200711Z 23003KT 9SM FEW009 BKN015 BKN055 OVC130 16/14 A3008 RMK AO2 T01610139
KATL 200652Z 22005KT 10SM FEW020 SCT070 BKN100 OVC150 16/14 A3008 RMK AO2 SLP182 T01610139
KATL 200552Z 21004KT 10SM FEW009 SCT090 BKN150 BKN250 16/13 A3010 RMK AO2 SLP190 T01560133 10172 20156 58013
KATL 200452Z 20003KT 10SM BKN090 BKN120 BKN250 16/13 A3012 RMK AO2 SLP198 T01560133 401890117

METAR Board
Radar Display
Forecast Discussion
For situational awareness. Not to be used for flight planning purposes.